Macdiarmid, Canada
Current Conditions -  °F | °C
As of 1:00 AM on Thursday 27 Nov 2014 (Local Time) from CYGQ Reporting Station
Clear Clear  
Wind Chill: -18°   Ceiling: Unl
Heat Index: -18°   Visibility: 15mi
Dew Point: -26°   Wind: 3mph
Humidity: 70%   Direction: 310°NW
Pressure: 30.32"   Gusts: NA
Location:  49.43°N, 88.12°W
Report Text: CYGQ 270600Z 31003KT 15SM SKC M28/M32 A3032 RMK SLP311
Loading
Personal Weather Stations






























Interactive Weather Map New forecast layout! Learn more

10-Day Weather Forecast

Advertisements
Track Severe Weather on mobile